Albion, NE

2:47 AM CST on February 21, 2017 (GMT -0600)
Albion Municipal

Weather History for KBVN - January, 2014

Change the Weather History Date:

Thursday, January 30, 2014

  Actual Average (KOFK) Record (KOFK)
Temperature  
Mean Temperature 32 °F -  
Max Temperature 45 °F 32 °F 67 °F (2012)
Min Temperature 20 °F 10 °F -25 °F (1902)
Degree Days  
Heating Degree Days 32    
Moisture  
Dew Point 13 °F    
Average Humidity 52    
Maximum Humidity 72    
Minimum Humidity 27    
Precipitation  
Precipitation 0.00 in - - ()
Sea Level Pressure  
Sea Level Pressure 29.71 in    
Wind  
Wind Speed 15 mph (NNW)    
Max Wind Speed 39 mph    
Max Gust Speed 46 mph    
Visibility 10 miles    
Events      
Averages and records for this station are not official NWS values.
T = Trace of Precipitation, MM = Missing Value Source: NWS Daily Summary

Daily Weather History Graph

Daily Weather History Graph

Search for Another Location

Airport or City:

Trip Planner

Search our weather history database for the weather conditions in past years. The results will help you decide how hot, cold, wet, or windy it might be!

Date:

Astronomy

Jan. 30, 2014 Rise Set
Actual Time 7:46 AM CST 5:45 PM CST
Civil Twilight 7:16 AM CST 6:14 PM CST
Nautical Twilight 6:43 AM CST 6:48 PM CST
Astronomical Twilight 6:10 AM CST 7:21 PM CST
Moon 7:12 AM CST (1/30) 5:59 PM CST (1/30)
Length of Visible Light 10h 58m
Length of Day
9h 58m
Waning Crescent, 0% of the Moon is Illuminated
Jan 30
Waning Crescent
Jan 30
New
Feb 6
First Quarter
Feb 14
Full
Feb 22
Last Quarter

Hourly Weather History & Observations

Time (CST) Temp. Windchill Dew Point Humidity Pressure Visibility Wind Dir Wind Speed Gust Speed Precip Events Conditions
12:15 AM 43.5 °F 36.7 °F 11.3 °F 27% 29.44 in 10.0 mi SSW 13.8 mph 19.6 mph N/A   Overcast
12:35 AM 43.7 °F 36.0 °F 13.6 °F 30% 29.42 in 10.0 mi SSW 17.3 mph 24.2 mph N/A   Overcast
12:55 AM 43.7 °F 35.7 °F 15.4 °F 32% 29.41 in 10.0 mi SSW 18.4 mph 23.0 mph N/A   Overcast
1:15 AM 42.8 °F 34.8 °F 15.4 °F 33% 29.39 in 10.0 mi South 17.3 mph - N/A   Overcast
1:35 AM 42.3 °F 34.1 °F 15.4 °F 34% 29.38 in 10.0 mi South 17.3 mph 23.0 mph N/A   Overcast
1:55 AM 42.4 °F 34.7 °F 14.5 °F 32% 29.37 in 10.0 mi SSW 16.1 mph 25.3 mph N/A   Overcast
2:15 AM 41.7 °F 34.4 °F 14.4 °F 33% 29.36 in 10.0 mi SSW 13.8 mph 20.7 mph N/A   Overcast
2:35 AM 40.5 °F 32.1 °F 14.0 °F 34% 29.34 in 10.0 mi South 16.1 mph 21.9 mph N/A   Overcast
2:55 AM 40.3 °F 33.4 °F 14.0 °F 34% 29.34 in 10.0 mi SSW 11.5 mph 17.3 mph N/A   Overcast
3:15 AM 40.1 °F 31.6 °F 13.8 °F 34% 29.36 in 10.0 mi SW 16.1 mph 21.9 mph N/A   Overcast
3:35 AM 39.9 °F 32.9 °F 13.5 °F 34% 29.34 in 10.0 mi SW 11.5 mph - N/A   Overcast
3:55 AM 40.1 °F 33.2 °F 13.1 °F 33% 29.35 in 10.0 mi SW 11.5 mph 17.3 mph N/A   Overcast
4:15 AM 40.1 °F 33.6 °F 14.0 °F 35% 29.34 in 10.0 mi SW 10.4 mph 17.3 mph N/A   Overcast
4:35 AM 38.8 °F 33.2 °F 19.0 °F 45% 29.34 in 10.0 mi SW 8.1 mph - N/A   Overcast
4:55 AM 40.1 °F 33.6 °F 16.5 °F 39% 29.34 in 10.0 mi SW 10.4 mph - N/A   Overcast
5:15 AM 41.0 °F 34.3 °F 17.1 °F 38% 29.35 in 10.0 mi WSW 11.5 mph - N/A   Drizzle
5:35 AM 40.5 °F 35.1 °F 18.3 °F 41% 29.35 in 10.0 mi WSW 8.1 mph - N/A   Overcast
5:55 AM 42.1 °F 37.7 °F 21.0 °F 43% 29.37 in 10.0 mi West 6.9 mph - N/A   Mostly Cloudy
6:15 AM 44.2 °F 38.8 °F 28.6 °F 54% 29.38 in 10.0 mi West 10.4 mph - N/A   Scattered Clouds
6:35 AM 45.1 °F 34.2 °F 30.7 °F 57% 29.41 in 10.0 mi NW 39.1 mph 46.0 mph N/A   Scattered Clouds
6:55 AM 32.5 °F 18.8 °F 23.4 °F 69% 29.46 in 10.0 mi NNW 27.6 mph 34.5 mph N/A   Scattered Clouds
7:15 AM 29.1 °F 13.7 °F 21.0 °F 72% 29.49 in 10.0 mi NW 29.9 mph 36.8 mph N/A   Mostly Cloudy
7:35 AM 26.4 °F 10.1 °F 18.3 °F 71% 29.53 in 10.0 mi NNW 29.9 mph 40.3 mph N/A   Mostly Cloudy
7:55 AM 24.8 °F 8.4 °F 16.7 °F 71% 29.55 in 10.0 mi NNW 27.6 mph 35.7 mph N/A   Scattered Clouds
8:15 AM 22.8 °F 4.9 °F 14.5 °F 71% 29.57 in 10.0 mi NNW 31.1 mph 39.1 mph N/A   Scattered Clouds
8:35 AM 21.2 °F 3.5 °F 13.5 °F 72% 29.60 in 10.0 mi NNW 27.6 mph 43.7 mph N/A   Scattered Clouds
8:55 AM 20.8 °F 3.7 °F 13.1 °F 72% 29.65 in 10.0 mi NNW 25.3 mph 33.4 mph N/A   Scattered Clouds
9:15 AM 21.4 °F 7.1 °F 13.5 °F 72% 29.68 in 10.0 mi NNW 17.3 mph 26.5 mph N/A   Mostly Cloudy
9:35 AM 21.9 °F 8.2 °F 13.6 °F 70% 29.70 in 10.0 mi NNW 16.1 mph 28.8 mph N/A   Overcast
9:55 AM 21.9 °F 7.3 °F 13.1 °F 69% 29.71 in 10.0 mi North 18.4 mph 28.8 mph N/A   Overcast
10:15 AM 21.2 °F 6.0 °F 12.2 °F 68% 29.74 in 10.0 mi North 19.6 mph 32.2 mph N/A   Overcast
10:35 AM 21.9 °F 5.8 °F 12.4 °F 67% 29.75 in 10.0 mi North 23.0 mph 33.4 mph N/A   Overcast
10:55 AM 21.9 °F 6.2 °F 12.2 °F 66% 29.77 in 10.0 mi North 21.9 mph 29.9 mph N/A   Overcast
11:15 AM 21.7 °F 5.6 °F 11.3 °F 64% 29.78 in 10.0 mi North 23.0 mph 28.8 mph N/A   Overcast
11:35 AM 23.2 °F 7.8 °F 11.7 °F 61% 29.79 in 10.0 mi NNW 21.9 mph 29.9 mph N/A   Overcast
11:55 AM 23.7 °F 8.9 °F 11.3 °F 59% 29.80 in 10.0 mi North 20.7 mph 27.6 mph N/A   Overcast
12:15 PM 24.4 °F 11.0 °F 10.9 °F 57% 29.80 in 10.0 mi NNW 17.3 mph 27.6 mph N/A   Scattered Clouds
12:35 PM 25.3 °F 11.4 °F 10.9 °F 54% 29.79 in 10.0 mi North 19.6 mph 27.6 mph N/A   Scattered Clouds
12:55 PM 25.7 °F 12.7 °F 10.9 °F 54% 29.80 in 10.0 mi North 17.3 mph 23.0 mph N/A   Clear
1:15 PM 26.8 °F 13.7 °F 10.6 °F 51% 29.79 in 10.0 mi North 18.4 mph - N/A   Clear
1:35 PM 27.3 °F 15.2 °F 10.8 °F 50% 29.80 in 10.0 mi North 16.1 mph 21.9 mph N/A   Clear
1:55 PM 27.3 °F 14.0 °F 10.6 °F 49% 29.81 in 10.0 mi North 19.6 mph 25.3 mph N/A   Clear
2:15 PM 28.2 °F 17.2 °F 10.4 °F 47% 29.81 in 10.0 mi North 13.8 mph 20.7 mph N/A   Clear
2:35 PM 28.8 °F 17.5 °F 10.4 °F 46% 29.81 in 10.0 mi North 15.0 mph 18.4 mph N/A   Clear
2:55 PM 28.4 °F 16.6 °F 10.6 °F 47% 29.82 in 10.0 mi North 16.1 mph 21.9 mph N/A   Clear
3:15 PM 27.5 °F 17.4 °F 10.4 °F 49% 29.84 in 10.0 mi North 11.5 mph 18.4 mph N/A   Clear
3:35 PM 28.2 °F 21.0 °F 10.4 °F 47% 29.86 in 10.0 mi North 6.9 mph - N/A   Clear
3:55 PM 27.3 °F 19.1 °F 9.9 °F 48% 29.87 in 10.0 mi North 8.1 mph - N/A   Clear
4:15 PM 26.6 °F 20.0 °F 9.5 °F 49% 29.88 in 10.0 mi North 5.8 mph - N/A   Clear
4:35 PM 26.6 °F 18.2 °F 9.5 °F 49% 29.89 in 10.0 mi North 8.1 mph - N/A   Clear
4:55 PM 26.4 °F 18.0 °F 9.5 °F 49% 29.89 in 10.0 mi North 8.1 mph - N/A   Clear
5:15 PM 25.5 °F 17.8 °F 9.3 °F 50% 29.90 in 10.0 mi North 6.9 mph - N/A   Clear
5:35 PM 24.6 °F 16.7 °F 9.3 °F 52% 29.92 in 10.0 mi North 6.9 mph - N/A   Clear
5:55 PM 23.5 °F 16.4 °F 9.1 °F 54% 29.92 in 10.0 mi NNE 5.8 mph - N/A   Clear
6:15 PM 22.3 °F 14.9 °F 8.8 °F 56% 29.93 in 10.0 mi NNE 5.8 mph - N/A   Clear
6:35 PM 21.7 °F 15.5 °F 8.6 °F 57% 29.95 in 10.0 mi NNE 4.6 mph - N/A   Clear
6:55 PM 21.0 °F - 8.6 °F 59% 29.98 in 10.0 mi Calm Calm - N/A   Mostly Cloudy
7:15 PM 21.7 °F 17.0 °F 8.6 °F 57% 29.98 in 10.0 mi North 3.5 mph - N/A   Overcast
7:35 PM 21.9 °F 17.2 °F 8.6 °F 57% 29.99 in 10.0 mi North 3.5 mph - N/A   Overcast
7:55 PM 21.7 °F - 8.6 °F 57% 29.99 in 10.0 mi Calm Calm - N/A   Overcast
8:15 PM 21.7 °F - 8.8 °F 57% 30.00 in 10.0 mi Calm Calm - N/A   Overcast
8:35 PM 22.1 °F 17.4 °F 8.8 °F 57% 30.00 in 10.0 mi North 3.5 mph - N/A   Overcast
8:55 PM 22.1 °F 17.4 °F 8.6 °F 56% 30.00 in 10.0 mi North 3.5 mph - N/A   Overcast
9:15 PM 22.1 °F - 8.6 °F 56% 30.02 in 10.0 mi Calm Calm - N/A   Overcast
9:35 PM 22.1 °F 17.4 °F 8.6 °F 56% 30.03 in 10.0 mi North 3.5 mph - N/A   Overcast
9:55 PM 22.1 °F 14.7 °F 8.6 °F 56% 30.01 in 10.0 mi North 5.8 mph - N/A   Overcast
10:15 PM 22.1 °F 14.7 °F 8.6 °F 56% 30.02 in 10.0 mi North 5.8 mph - N/A   Overcast
10:35 PM 22.1 °F 14.7 °F 8.6 °F 56% 30.03 in 10.0 mi North 5.8 mph - N/A   Overcast
10:55 PM 21.9 °F 13.4 °F 8.6 °F 57% 30.03 in 10.0 mi North 6.9 mph - N/A   Overcast
11:15 PM 21.6 °F 13.0 °F 8.8 °F 58% 30.03 in 10.0 mi North 6.9 mph - N/A   Overcast
11:35 PM 21.6 °F 14.0 °F 8.6 °F 57% 30.03 in 10.0 mi North 5.8 mph - N/A   Overcast
11:55 PM 21.2 °F 12.6 °F 9.0 °F 59% 30.02 in 10.0 mi North 6.9 mph - N/A   Overcast